Time;durP1;ratioP1;P1;durP2;ratioP2;P2;SDS_P1;SDS_P2;PMS_P1;PMS_P2;Temp;Humidity;BMP_temperature;BMP_pressure;BME280_temperature;BME280_humidity;BME280_pressure;Samples;Min_cycle;Max_cycle;Signal;HPM_P1;HPM_P2
2023/02/17 00:00:58;;;;;;;11.48;10.32;;;10.90;99.90;;;;;;5061344;28;20111;-44
2023/02/17 00:03:27;;;;;;;11.73;10.38;;;10.90;99.90;;;;;;5062161;28;20213;-44
2023/02/17 00:05:53;;;;;;;12.68;11.13;;;10.90;99.90;;;;;;5060707;28;20041;-44
2023/02/17 00:08:18;;;;;;;12.13;10.90;;;10.90;99.90;;;;;;5062137;28;20047;-44
2023/02/17 00:10:44;;;;;;;10.55;9.55;;;10.90;99.90;;;;;;5060882;28;20151;-44
2023/02/17 00:13:10;;;;;;;12.27;10.80;;;10.90;99.90;;;;;;5061825;28;20120;-44
2023/02/17 00:15:38;;;;;;;12.85;11.52;;;11.00;99.90;;;;;;5060767;28;20021;-43
2023/02/17 00:18:04;;;;;;;12.23;10.95;;;10.90;99.90;;;;;;5061464;28;20451;-42
2023/02/17 00:20:29;;;;;;;12.63;11.32;;;10.90;99.90;;;;;;5061546;28;20028;-43
2023/02/17 00:22:55;;;;;;;12.98;11.68;;;10.90;99.90;;;;;;5060703;28;20031;-43
2023/02/17 00:25:20;;;;;;;12.73;11.45;;;10.90;99.90;;;;;;5062208;28;20048;-43
2023/02/17 00:27:46;;;;;;;11.15;10.05;;;10.90;99.90;;;;;;5061492;28;20025;-43
2023/02/17 00:30:11;;;;;;;11.10;10.00;;;11.00;99.90;;;;;;5060715;28;20674;-43
2023/02/17 00:32:37;;;;;;;11.40;10.30;;;11.00;99.90;;;;;;5061222;28;20025;-43
2023/02/17 00:35:03;;;;;;;10.60;9.50;;;11.00;99.90;;;;;;5061636;28;20035;-43
2023/02/17 00:37:28;;;;;;;10.57;9.48;;;11.00;99.90;;;;;;5060095;28;20117;-44
2023/02/17 00:39:54;;;;;;;10.80;9.70;;;11.00;99.90;;;;;;5060781;28;20036;-43
2023/02/17 00:42:20;;;;;;;11.30;10.20;;;11.00;99.90;;;;;;5061776;28;20748;-43
2023/02/17 00:44:45;;;;;;;10.85;9.75;;;11.00;99.90;;;;;;5060808;28;20925;-44
2023/02/17 00:47:11;;;;;;;9.65;8.65;;;11.00;99.90;;;;;;5061811;28;20551;-43
2023/02/17 00:49:36;;;;;;;10.05;8.98;;;11.00;99.90;;;;;;5061353;28;20047;-44
2023/02/17 00:52:02;;;;;;;9.85;8.85;;;11.00;99.90;;;;;;5060330;28;20025;-43
2023/02/17 00:54:31;;;;;;;9.65;8.75;;;11.10;99.90;;;;;;5060529;28;20070;-43
2023/02/17 00:57:02;;;;;;;8.15;7.22;;;11.00;99.90;;;;;;5059465;28;20027;-43
2023/02/17 00:59:28;;;;;;;7.82;7.13;;;11.00;99.90;;;;;;5059745;28;20058;-43
2023/02/17 01:01:56;;;;;;;9.30;8.40;;;11.00;99.90;;;;;;5060465;28;20877;-43
2023/02/17 01:04:25;;;;;;;8.77;7.93;;;11.00;99.90;;;;;;5060384;28;20125;-43
2023/02/17 01:06:51;;;;;;;7.40;6.70;;;11.00;99.90;;;;;;5059114;28;20135;-43
2023/02/17 01:09:16;;;;;;;8.48;7.68;;;11.00;99.90;;;;;;5060351;28;20081;-44
2023/02/17 01:11:42;;;;;;;8.23;7.43;;;11.00;99.90;;;;;;5060343;28;20073;-44
2023/02/17 01:14:12;;;;;;;9.20;8.32;;;11.00;99.90;;;;;;5060443;28;20024;-43
2023/02/17 01:16:39;;;;;;;7.57;6.88;;;11.00;99.90;;;;;;5060369;28;20070;-43
2023/02/17 01:19:08;;;;;;;8.25;7.45;;;11.00;99.90;;;;;;5059281;28;20020;-44
2023/02/17 01:21:34;;;;;;;7.85;7.15;;;11.00;99.90;;;;;;5039821;28;20029;-45
2023/02/17 01:24:05;;;;;;;7.55;6.85;;;11.00;99.90;;;;;;5054117;28;20487;-45
2023/02/17 01:26:33;;;;;;;8.32;7.53;;;11.10;99.90;;;;;;5059377;28;20464;-44
2023/02/17 01:28:59;;;;;;;8.45;7.68;;;11.10;99.90;;;;;;5060248;28;20031;-43
2023/02/17 01:31:28;;;;;;;9.13;8.18;;;11.10;99.90;;;;;;5060290;28;20478;-43
2023/02/17 01:33:56;;;;;;;9.45;8.45;;;11.10;99.90;;;;;;5058962;28;20313;-43
2023/02/17 01:36:21;;;;;;;9.63;8.65;;;11.10;99.90;;;;;;5060235;28;20140;-43
2023/02/17 01:38:47;;;;;;;8.80;8.00;;;11.10;99.90;;;;;;5059631;28;20028;-43
2023/02/17 01:41:16;;;;;;;9.90;8.85;;;11.10;99.90;;;;;;5058803;28;20145;-44
2023/02/17 01:44:07;;;;;;;9.25;8.35;;;11.10;99.90;;;;;;5057913;28;20107;-43
2023/02/17 01:46:34;;;;;;;9.57;8.68;;;11.10;99.90;;;;;;5059336;28;20055;-43
2023/02/17 01:49:24;;;;;;;10.15;9.10;;;11.00;99.90;;;;;;5057457;28;20056;-43
2023/02/17 01:52:06;;;;;;;10.05;9.02;;;11.10;99.90;;;;;;5058047;28;20218;-44
2023/02/17 01:54:46;;;;;;;9.25;8.35;;;11.10;99.90;;;;;;5059097;28;20185;-43
2023/02/17 01:57:20;;;;;;;11.13;10.02;;;11.10;99.90;;;;;;5060987;28;20161;-43
2023/02/17 01:59:47;;;;;;;11.93;10.73;;;11.00;99.90;;;;;;5059757;28;20055;-43
2023/02/17 02:02:13;;;;;;;11.55;10.40;;;11.10;99.90;;;;;;5059392;28;20020;-43
2023/02/17 02:04:41;;;;;;;13.20;10.77;;;11.10;99.90;;;;;;5059596;28;20090;-43
2023/02/17 02:07:13;;;;;;;12.13;10.93;;;11.10;99.90;;;;;;5059100;28;20082;-43
2023/02/17 02:09:55;;;;;;;14.82;12.65;;;11.10;99.90;;;;;;5059057;28;20036;-43
2023/02/17 02:12:21;;;;;;;14.77;13.18;;;11.10;99.90;;;;;;5060476;28;20028;-43
2023/02/17 02:14:48;;;;;;;15.85;13.88;;;11.10;99.90;;;;;;5060121;28;20044;-43
2023/02/17 02:17:47;;;;;;;17.02;14.27;;;11.10;99.90;;;;;;5060561;28;20020;-43
2023/02/17 02:20:44;;;;;;;15.70;12.98;;;11.10;99.90;;;;;;5060823;28;20040;-43
2023/02/17 02:23:23;;;;;;;15.45;13.32;;;11.10;99.90;;;;;;5059879;28;20034;-43
2023/02/17 02:26:23;;;;;;;14.98;13.07;;;11.00;99.90;;;;;;5059398;28;20617;-43
2023/02/17 02:29:08;;;;;;;19.83;15.60;;;11.10;99.90;;;;;;5041718;28;20048;-44
2023/02/17 02:32:01;;;;;;;16.30;13.65;;;11.00;99.90;;;;;;5060998;28;20533;-44
2023/02/17 02:34:41;;;;;;;18.10;14.88;;;11.00;99.90;;;;;;5064740;28;20082;-43
2023/02/17 02:37:23;;;;;;;19.83;15.00;;;11.10;99.90;;;;;;5063163;28;20036;-45
2023/02/17 02:39:53;;;;;;;16.13;13.30;;;11.00;99.90;;;;;;5063780;28;20028;-43
2023/02/17 02:42:23;;;;;;;16.75;13.40;;;11.10;99.90;;;;;;5064687;28;20029;-43
2023/02/17 02:44:49;;;;;;;18.20;13.88;;;11.10;99.90;;;;;;5062648;28;20032;-43
2023/02/17 02:47:52;;;;;;;17.27;13.77;;;11.10;99.90;;;;;;5064161;28;20020;-43
2023/02/17 02:50:30;;;;;;;18.58;14.63;;;11.10;99.90;;;;;;5063724;28;20148;-44
2023/02/17 02:53:20;;;;;;;17.27;14.55;;;11.10;99.90;;;;;;5060217;28;20021;-43
2023/02/17 02:55:48;;;;;;;19.40;14.57;;;11.00;99.90;;;;;;5062890;28;20044;-44
2023/02/17 02:58:31;;;;;;;18.35;14.25;;;11.00;99.90;;;;;;5063782;28;20027;-43
2023/02/17 03:01:14;;;;;;;20.05;14.27;;;11.00;99.90;;;;;;5063557;28;20036;-43
2023/02/17 03:03:59;;;;;;;20.42;14.18;;;11.00;99.90;;;;;;5053274;28;20032;-43
2023/02/17 03:06:28;;;;;;;19.55;14.60;;;11.00;99.90;;;;;;5063277;28;20036;-43
2023/02/17 03:09:03;;;;;;;17.55;14.38;;;11.00;99.90;;;;;;5062494;28;20021;-44
2023/02/17 03:11:32;;;;;;;18.42;14.32;;;11.00;99.90;;;;;;5063152;28;20028;-43
2023/02/17 03:14:02;;;;;;;17.00;14.00;;;11.00;99.90;;;;;;5062629;28;20021;-43
2023/02/17 03:16:28;;;;;;;16.40;13.38;;;11.10;99.90;;;;;;5063474;28;20734;-43
2023/02/17 03:18:54;;;;;;;17.25;13.27;;;11.10;99.90;;;;;;5062191;28;20426;-44
2023/02/17 03:21:19;;;;;;;17.73;12.65;;;11.10;99.90;;;;;;5063223;28;20071;-44
2023/02/17 03:23:45;;;;;;;14.43;12.52;;;11.10;99.90;;;;;;5061222;28;20726;-44
2023/02/17 03:26:10;;;;;;;15.95;12.45;;;11.10;99.90;;;;;;5062305;28;20479;-44
2023/02/17 03:28:36;;;;;;;14.77;12.73;;;11.10;99.90;;;;;;5062209;28;20411;-44
2023/02/17 03:31:01;;;;;;;13.90;11.68;;;11.10;99.90;;;;;;5063425;28;20530;-44
2023/02/17 03:33:27;;;;;;;16.15;13.07;;;11.00;99.90;;;;;;5062473;28;20031;-45
2023/02/17 03:35:52;;;;;;;16.10;12.93;;;11.00;99.90;;;;;;5062234;28;20031;-43
2023/02/17 03:38:18;;;;;;;15.40;11.82;;;11.00;99.90;;;;;;5062812;28;20093;-43
2023/02/17 03:40:43;;;;;;;14.88;12.13;;;11.00;99.90;;;;;;5060220;28;20029;-43
2023/02/17 03:43:09;;;;;;;14.85;12.35;;;11.00;99.90;;;;;;5062847;28;20021;-44
2023/02/17 03:45:36;;;;;;;15.32;12.07;;;11.10;99.90;;;;;;5061885;28;20380;-43
2023/02/17 03:48:02;;;;;;;14.07;11.60;;;11.00;99.90;;;;;;5061431;28;20020;-43
2023/02/17 03:50:28;;;;;;;13.00;11.15;;;11.00;99.90;;;;;;5062869;28;20118;-43
2023/02/17 03:52:53;;;;;;;13.73;11.80;;;11.10;99.90;;;;;;5061558;28;20027;-44
2023/02/17 03:55:19;;;;;;;14.30;11.45;;;11.00;99.90;;;;;;5061861;28;20139;-43
2023/02/17 03:57:44;;;;;;;13.48;10.90;;;11.10;99.90;;;;;;5061326;28;20166;-43
2023/02/17 04:00:10;;;;;;;11.13;9.93;;;11.10;99.90;;;;;;5060909;28;20031;-42
2023/02/17 04:02:36;;;;;;;12.48;10.52;;;11.00;99.90;;;;;;5061510;28;20035;-43
2023/02/17 04:05:02;;;;;;;10.77;9.32;;;11.00;99.90;;;;;;5061739;28;20044;-44
2023/02/17 04:07:27;;;;;;;11.05;9.70;;;11.00;99.90;;;;;;5061893;28;20045;-44
2023/02/17 04:09:53;;;;;;;11.30;10.10;;;11.00;99.90;;;;;;5060712;28;20389;-44
2023/02/17 04:12:21;;;;;;;12.30;9.88;;;11.00;99.90;;;;;;5061761;28;20887;-43
2023/02/17 04:14:46;;;;;;;12.77;10.02;;;11.00;99.90;;;;;;5060168;28;20025;-43
2023/02/17 04:17:12;;;;;;;13.35;10.57;;;11.00;99.90;;;;;;5061544;28;20125;-43
2023/02/17 04:19:38;;;;;;;12.65;9.98;;;11.00;99.90;;;;;;5061422;28;20035;-43
2023/02/17 04:22:07;;;;;;;11.23;9.15;;;11.00;99.90;;;;;;5061218;28;20037;-42
2023/02/17 04:24:36;;;;;;;11.55;9.27;;;11.00;99.90;;;;;;5061801;28;20032;-43
2023/02/17 04:27:03;;;;;;;13.07;9.73;;;11.00;99.90;;;;;;5061149;28;20443;-43
2023/02/17 04:29:29;;;;;;;10.50;9.40;;;11.00;99.90;;;;;;5061032;28;20024;-44
2023/02/17 04:31:54;;;;;;;10.70;9.30;;;11.00;99.90;;;;;;5061223;28;20067;-44
2023/02/17 04:34:22;;;;;;;12.23;10.45;;;11.00;99.90;;;;;;5062581;28;20042;-43
2023/02/17 04:36:48;;;;;;;13.13;10.30;;;11.00;99.90;;;;;;5049344;28;20035;-44
2023/02/17 04:39:14;;;;;;;12.20;10.52;;;11.10;99.90;;;;;;5061972;28;20016;-43
2023/02/17 04:41:39;;;;;;;12.07;9.82;;;11.10;99.90;;;;;;5060652;28;20093;-43
2023/02/17 04:44:05;;;;;;;13.35;10.73;;;11.10;99.90;;;;;;5060547;28;20024;-43
2023/02/17 04:46:30;;;;;;;12.57;10.30;;;11.10;99.90;;;;;;5059882;28;20029;-43
2023/02/17 04:48:56;;;;;;;12.27;10.73;;;11.10;99.90;;;;;;5060525;28;20085;-43
2023/02/17 04:51:21;;;;;;;12.23;10.93;;;11.10;99.90;;;;;;5059797;28;20040;-44
2023/02/17 04:53:47;;;;;;;14.00;11.20;;;11.10;99.90;;;;;;5060941;28;20025;-44
2023/02/17 04:56:12;;;;;;;14.13;11.75;;;11.10;99.90;;;;;;5060499;28;20020;-44
2023/02/17 04:58:38;;;;;;;13.93;11.70;;;11.10;99.90;;;;;;5059729;28;20024;-43
2023/02/17 05:01:04;;;;;;;13.40;11.60;;;11.10;99.90;;;;;;5060253;28;20016;-43
2023/02/17 05:03:29;;;;;;;13.50;12.10;;;11.10;99.90;;;;;;5061234;28;20035;-42
2023/02/17 05:05:55;;;;;;;13.30;11.85;;;11.20;99.90;;;;;;5058795;28;20643;-43
2023/02/17 05:08:21;;;;;;;15.10;13.35;;;11.10;99.90;;;;;;5061204;28;20027;-43
2023/02/17 05:10:46;;;;;;;15.88;13.48;;;11.10;99.90;;;;;;5059949;28;20101;-45
2023/02/17 05:13:12;;;;;;;14.30;12.40;;;11.10;99.90;;;;;;5059791;28;20937;-43
2023/02/17 05:15:37;;;;;;;15.80;13.52;;;11.10;99.90;;;;;;5060249;28;20441;-44
2023/02/17 05:18:03;;;;;;;17.13;13.95;;;11.10;99.90;;;;;;5059082;28;20021;-43
2023/02/17 05:20:29;;;;;;;18.10;14.68;;;11.10;99.90;;;;;;5059613;28;20689;-44
2023/02/17 05:22:55;;;;;;;16.45;12.98;;;11.10;99.90;;;;;;5059839;28;20099;-44
2023/02/17 05:25:20;;;;;;;17.10;15.23;;;11.00;99.90;;;;;;5059846;28;20028;-45
2023/02/17 05:27:46;;;;;;;16.85;13.80;;;11.00;99.90;;;;;;5059322;28;20123;-43
2023/02/17 05:30:12;;;;;;;17.20;14.75;;;11.00;99.90;;;;;;5060604;28;20035;-42
2023/02/17 05:32:37;;;;;;;17.92;14.77;;;10.90;99.90;;;;;;5059714;28;20400;-44
2023/02/17 05:35:03;;;;;;;17.77;15.32;;;11.00;99.90;;;;;;5060311;28;20029;-44
2023/02/17 05:37:28;;;;;;;17.50;15.23;;;10.90;99.90;;;;;;5061056;28;20032;-44
2023/02/17 05:39:54;;;;;;;19.25;15.25;;;10.90;99.90;;;;;;5059921;28;20119;-43
2023/02/17 05:42:20;;;;;;;19.45;15.98;;;10.90;99.90;;;;;;5061181;28;20115;-43
2023/02/17 05:44:45;;;;;;;17.40;15.25;;;10.90;99.90;;;;;;5060532;28;20071;-43
2023/02/17 05:47:11;;;;;;;16.23;14.18;;;10.90;99.90;;;;;;5059485;28;20020;-43
2023/02/17 05:49:36;;;;;;;16.08;13.45;;;10.90;99.90;;;;;;5060729;28;20388;-44
2023/02/17 05:52:02;;;;;;;16.30;13.65;;;10.90;99.90;;;;;;5060194;28;20046;-44
2023/02/17 05:54:28;;;;;;;17.05;14.65;;;10.90;99.90;;;;;;5060075;28;20032;-44
2023/02/17 05:56:53;;;;;;;16.45;13.93;;;10.90;99.90;;;;;;5059593;28;20737;-43
2023/02/17 05:59:19;;;;;;;17.08;14.50;;;10.90;99.90;;;;;;5060817;28;20039;-44
2023/02/17 06:01:44;;;;;;;16.08;13.23;;;10.90;99.90;;;;;;5060190;28;20031;-42
2023/02/17 06:04:10;;;;;;;17.52;14.50;;;10.90;99.90;;;;;;5059366;28;20114;-43
2023/02/17 06:06:35;;;;;;;16.02;13.10;;;10.90;99.90;;;;;;5060526;28;20115;-44
2023/02/17 06:09:01;;;;;;;17.08;14.07;;;10.90;99.90;;;;;;5059097;28;20131;-44
2023/02/17 06:11:27;;;;;;;17.63;14.50;;;10.90;99.90;;;;;;5060557;28;20077;-44
2023/02/17 06:13:52;;;;;;;17.90;14.10;;;11.00;99.90;;;;;;5059515;28;20095;-43
2023/02/17 06:16:18;;;;;;;17.08;14.27;;;11.00;99.90;;;;;;5059941;28;20771;-43
2023/02/17 06:18:43;;;;;;;17.52;14.13;;;11.00;99.90;;;;;;5060473;28;20102;-44
2023/02/17 06:21:09;;;;;;;15.85;13.25;;;11.00;99.90;;;;;;5060152;28;20060;-43
2023/02/17 06:23:34;;;;;;;14.77;12.45;;;10.90;99.90;;;;;;5059070;28;20059;-43
2023/02/17 06:26:00;;;;;;;12.82;11.02;;;10.90;99.90;;;;;;5060365;28;20035;-43
2023/02/17 06:28:25;;;;;;;13.27;11.73;;;10.90;99.90;;;;;;5059611;28;20124;-33
2023/02/17 06:30:51;;;;;;;13.63;11.57;;;10.90;99.90;;;;;;5060059;28;20037;-33
2023/02/17 06:33:16;;;;;;;14.48;11.93;;;11.00;99.90;;;;;;5060510;28;20020;-32
2023/02/17 06:35:47;;;;;;;12.77;11.45;;;11.00;99.90;;;;;;5059086;28;20021;-33
2023/02/17 06:38:12;;;;;;;13.38;11.90;;;10.90;99.90;;;;;;5060370;28;20033;-33
2023/02/17 06:40:38;;;;;;;14.48;12.05;;;11.00;99.90;;;;;;5059858;28;20029;-33
2023/02/17 06:43:05;;;;;;;14.20;12.00;;;11.00;99.90;;;;;;5058827;28;20028;-34
2023/02/17 06:45:30;;;;;;;14.80;12.20;;;11.00;99.90;;;;;;5059669;28;20730;-33
2023/02/17 06:47:56;;;;;;;13.10;11.20;;;11.00;99.90;;;;;;5059126;28;20090;-33
2023/02/17 06:50:22;;;;;;;13.35;11.18;;;11.00;99.90;;;;;;5059229;28;20068;-35
2023/02/17 06:52:47;;;;;;;14.38;12.88;;;11.00;99.90;;;;;;5060149;28;20112;-34
2023/02/17 06:55:13;;;;;;;14.73;12.43;;;11.00;99.90;;;;;;5060424;28;20696;-34
2023/02/17 06:57:39;;;;;;;15.38;12.27;;;11.00;99.90;;;;;;5059299;28;20085;-33
2023/02/17 07:00:05;;;;;;;13.95;11.30;;;11.10;99.90;;;;;;5059091;28;20021;-33
2023/02/17 07:02:31;;;;;;;13.65;11.05;;;11.10;99.90;;;;;;5060265;28;20399;-34
2023/02/17 07:04:56;;;;;;;12.43;11.10;;;11.10;99.90;;;;;;5058234;28;20043;-33
2023/02/17 07:07:22;;;;;;;14.02;11.65;;;11.10;99.90;;;;;;5060650;28;20495;-34
2023/02/17 07:09:47;;;;;;;13.88;11.38;;;11.10;99.90;;;;;;5060332;28;20041;-33
2023/02/17 07:12:15;;;;;;;15.55;11.38;;;11.10;99.90;;;;;;5059266;28;20020;-34
2023/02/17 07:14:41;;;;;;;13.88;11.38;;;11.10;99.90;;;;;;5060260;28;20135;-32
2023/02/17 07:17:07;;;;;;;15.40;13.25;;;11.10;99.90;;;;;;5063679;28;20383;-33
2023/02/17 07:19:32;;;;;;;13.00;11.18;;;11.20;99.90;;;;;;5063042;28;20108;-32
2023/02/17 07:21:58;;;;;;;13.13;11.73;;;11.20;99.90;;;;;;5063578;28;20021;-33
2023/02/17 07:24:23;;;;;;;14.10;12.02;;;11.20;99.90;;;;;;5063603;28;20119;-34
2023/02/17 07:26:49;;;;;;;14.27;12.15;;;11.20;99.90;;;;;;5062378;28;20036;-33
2023/02/17 07:29:14;;;;;;;12.60;11.23;;;11.20;99.90;;;;;;5063874;28;20024;-33
2023/02/17 07:31:40;;;;;;;15.32;12.65;;;11.20;99.90;;;;;;5063042;28;20419;-34
2023/02/17 07:34:06;;;;;;;13.80;11.25;;;11.20;99.90;;;;;;5063344;28;20034;-33
2023/02/17 07:36:31;;;;;;;15.43;12.68;;;11.20;99.90;;;;;;5063195;28;20034;-34
2023/02/17 07:38:57;;;;;;;12.68;11.13;;;11.30;99.90;;;;;;5062456;28;20028;-34
2023/02/17 07:41:27;;;;;;;13.63;12.07;;;11.30;99.90;;;;;;5063367;28;20020;-34
2023/02/17 07:43:55;;;;;;;14.23;11.63;;;11.30;99.90;;;;;;5063020;28;20082;-32
2023/02/17 07:46:24;;;;;;;12.95;10.85;;;11.30;99.90;;;;;;5062685;28;20032;-34
2023/02/17 07:48:50;;;;;;;14.40;11.70;;;11.30;99.90;;;;;;5062630;28;20111;-34
2023/02/17 07:51:21;;;;;;;13.00;11.60;;;11.40;99.90;;;;;;5063170;28;20394;-34
2023/02/17 07:53:47;;;;;;;13.00;11.07;;;11.40;99.90;;;;;;5062530;28;20036;-34
2023/02/17 07:56:15;;;;;;;14.20;12.73;;;11.40;99.90;;;;;;5063040;28;20016;-33
2023/02/17 07:58:42;;;;;;;13.88;11.50;;;11.40;99.90;;;;;;5063099;28;20089;-33
2023/02/17 08:01:11;;;;;;;12.50;11.13;;;11.40;99.90;;;;;;5062373;28;20040;-33
2023/02/17 08:03:40;;;;;;;12.52;11.23;;;11.40;99.90;;;;;;5062824;28;20562;-34
2023/02/17 08:06:24;;;;;;;15.75;12.32;;;11.40;99.90;;;;;;5062524;28;20056;-34
2023/02/17 08:14:29;;;;;;;16.27;11.10;;;11.50;99.90;;;;;;5062330;28;20641;-33
2023/02/17 08:16:55;;;;;;;13.45;11.45;;;11.50;99.90;;;;;;5062103;28;20032;-34
2023/02/17 08:19:21;;;;;;;12.43;10.93;;;11.50;99.90;;;;;;5062389;28;20525;-33
2023/02/17 08:21:47;;;;;;;12.25;10.95;;;11.50;99.90;;;;;;5061752;28;20028;-33
2023/02/17 08:24:15;;;;;;;12.18;10.88;;;11.60;99.90;;;;;;5062084;28;20020;-34
2023/02/17 08:26:40;;;;;;;11.75;10.55;;;11.50;99.90;;;;;;5060782;28;20737;-34
2023/02/17 08:29:06;;;;;;;12.48;10.98;;;11.60;99.90;;;;;;5060535;28;20170;-33
2023/02/17 08:31:34;;;;;;;13.32;11.13;;;11.60;99.90;;;;;;5062455;28;20126;-33
2023/02/17 08:34:02;;;;;;;19.45;12.23;;;11.60;99.90;;;;;;5061564;28;20464;-32
2023/02/17 08:36:28;;;;;;;11.50;10.23;;;11.60;99.90;;;;;;5062364;28;20071;-33
2023/02/17 08:38:55;;;;;;;12.40;9.98;;;11.60;99.90;;;;;;5061174;28;20471;-34
2023/02/17 08:41:24;;;;;;;11.85;10.52;;;11.70;99.90;;;;;;5062398;28;20490;-34
2023/02/17 08:43:50;;;;;;;12.38;10.50;;;11.70;99.90;;;;;;5061179;28;20480;-33
2023/02/17 08:46:19;;;;;;;12.05;10.52;;;11.70;99.90;;;;;;5062373;28;20040;-33
2023/02/17 08:48:45;;;;;;;12.00;10.43;;;11.80;99.90;;;;;;5062249;28;20098;-34
2023/02/17 08:51:15;;;;;;;12.43;10.07;;;11.80;99.90;;;;;;5060648;28;20051;-35
2023/02/17 08:53:41;;;;;;;10.85;9.65;;;11.80;99.90;;;;;;5061181;28;20031;-34
2023/02/17 08:56:07;;;;;;;10.45;9.35;;;11.80;99.90;;;;;;5060989;28;20029;-34
2023/02/17 08:58:34;;;;;;;11.68;9.77;;;11.90;99.90;;;;;;5062249;28;20024;-35
2023/02/17 09:00:59;;;;;;;10.65;9.07;;;11.90;99.90;;;;;;5061595;28;20028;-34
2023/02/17 09:03:25;;;;;;;10.10;9.10;;;11.90;99.90;;;;;;5061238;28;20098;-33
2023/02/17 09:05:56;;;;;;;10.45;8.00;;;12.00;99.90;;;;;;5061120;28;20151;-34
2023/02/17 09:08:22;;;;;;;9.48;8.38;;;12.00;99.90;;;;;;5061732;28;20820;-33
2023/02/17 09:10:48;;;;;;;8.57;7.78;;;12.00;99.90;;;;;;5061386;28;20043;-33
2023/02/17 09:13:14;;;;;;;9.15;8.25;;;12.00;99.90;;;;;;5061097;28;20120;-34
2023/02/17 09:15:39;;;;;;;10.25;8.00;;;12.10;99.90;;;;;;5061230;28;20136;-35
2023/02/17 09:18:05;;;;;;;9.50;8.35;;;12.00;99.90;;;;;;5060642;28;20355;-34
2023/02/17 09:20:31;;;;;;;8.70;7.70;;;12.10;99.90;;;;;;5061507;28;20081;-33
2023/02/17 09:22:57;;;;;;;8.57;7.68;;;12.10;99.90;;;;;;5060796;28;20056;-33
2023/02/17 09:25:23;;;;;;;7.85;7.05;;;12.10;99.90;;;;;;5060154;28;20112;-34
2023/02/17 09:27:51;;;;;;;7.82;6.97;;;12.10;99.90;;;;;;5060834;28;20043;-34
2023/02/17 09:30:17;;;;;;;7.63;6.90;;;12.10;99.90;;;;;;5060356;28;20493;-34
2023/02/17 09:32:43;;;;;;;7.22;6.53;;;12.10;99.90;;;;;;5060062;28;20563;-34
2023/02/17 09:35:16;;;;;;;7.88;7.05;;;12.10;99.90;;;;;;5060411;28;20023;-34
2023/02/17 09:37:43;;;;;;;8.48;6.63;;;12.10;99.90;;;;;;5061320;28;20032;-33
2023/02/17 09:40:16;;;;;;;7.95;7.15;;;12.10;99.90;;;;;;5059260;28;20780;-34
2023/02/17 09:42:42;;;;;;;7.93;6.85;;;12.20;99.90;;;;;;5061047;28;20348;-33
2023/02/17 09:45:17;;;;;;;6.85;6.10;;;12.20;99.90;;;;;;5060579;28;20019;-33
2023/02/17 09:47:48;;;;;;;6.65;5.95;;;12.20;99.90;;;;;;5061130;28;20844;-34
2023/02/17 09:50:52;;;;;;;7.05;6.18;;;12.30;99.90;;;;;;5060522;28;20039;-33
2023/02/17 09:53:25;;;;;;;7.70;6.75;;;12.30;99.90;;;;;;5060039;28;20028;-33
2023/02/17 09:55:54;;;;;;;7.68;6.90;;;12.30;99.90;;;;;;5059699;28;20399;-33
2023/02/17 09:58:30;;;;;;;7.88;6.80;;;12.30;99.90;;;;;;5060536;28;20024;-34
2023/02/17 10:00:58;;;;;;;7.13;6.47;;;12.30;99.90;;;;;;5059763;28;20150;-34
2023/02/17 10:03:36;;;;;;;6.80;6.13;;;12.30;99.90;;;;;;5060148;28;20024;-32
2023/02/17 10:06:31;;;;;;;6.35;5.75;;;12.30;99.90;;;;;;5059245;28;20054;-33
2023/02/17 10:09:07;;;;;;;7.05;5.82;;;12.20;99.90;;;;;;5059854;28;20032;-33
2023/02/17 10:11:38;;;;;;;7.47;5.65;;;12.20;99.90;;;;;;5060461;28;20040;-34
2023/02/17 10:14:29;;;;;;;6.55;5.85;;;12.20;99.90;;;;;;5059371;28;20468;-34
2023/02/17 10:17:46;;;;;;;6.43;5.70;;;12.30;99.90;;;;;;5059171;28;20036;-34
2023/02/17 10:20:18;;;;;;;6.72;6.00;;;12.30;99.90;;;;;;5034123;28;20112;-33
2023/02/17 10:22:49;;;;;;;6.75;6.05;;;12.30;99.90;;;;;;5057900;28;20040;-34
2023/02/17 10:25:40;;;;;;;6.40;5.80;;;12.40;99.90;;;;;;5060025;28;20028;-33
2023/02/17 10:28:16;;;;;;;5.82;5.30;;;12.40;99.90;;;;;;5058447;28;20036;-35
2023/02/17 10:31:05;;;;;;;6.90;5.50;;;12.40;99.90;;;;;;5059064;28;20032;-34
2023/02/17 10:33:47;;;;;;;8.10;5.38;;;12.40;99.90;;;;;;5058629;28;20028;-33
2023/02/17 10:36:32;;;;;;;5.30;4.80;;;12.40;99.90;;;;;;5058834;28;20104;-35
2023/02/17 10:39:21;;;;;;;5.68;5.07;;;12.40;99.90;;;;;;5049294;28;20051;-33
2023/02/17 10:41:50;;;;;;;6.38;5.78;;;12.40;99.90;;;;;;5058934;28;20502;-33
2023/02/17 10:44:19;;;;;;;6.72;6.03;;;12.40;99.90;;;;;;5059166;28;20140;-34
2023/02/17 10:46:47;;;;;;;5.75;5.22;;;12.40;99.90;;;;;;5059940;28;20154;-34
2023/02/17 10:49:25;;;;;;;5.40;4.90;;;12.40;99.90;;;;;;5048936;28;20056;-34
2023/02/17 10:51:50;;;;;;;6.40;5.50;;;12.40;99.90;;;;;;5063836;28;20024;-34
2023/02/17 10:54:37;;;;;;;7.18;5.60;;;12.40;99.90;;;;;;5064265;28;20035;-34
2023/02/17 10:57:07;;;;;;;5.60;5.00;;;12.40;99.90;;;;;;5062293;28;20492;-34
2023/02/17 10:59:39;;;;;;;5.90;5.30;;;12.40;99.90;;;;;;5052959;28;20377;-35
2023/02/17 11:02:16;;;;;;;5.65;4.80;;;12.40;99.90;;;;;;5062831;28;20025;-32
2023/02/17 11:04:43;;;;;;;5.68;4.88;;;12.40;99.90;;;;;;5062275;28;20048;-33
2023/02/17 11:07:12;;;;;;;6.68;5.80;;;12.40;99.90;;;;;;5063225;28;20021;-33
2023/02/17 11:09:44;;;;;;;6.75;5.75;;;12.50;99.90;;;;;;5062428;28;20052;-34
2023/02/17 11:12:19;;;;;;;7.65;6.47;;;12.50;99.90;;;;;;5063248;28;20040;-34
2023/02/17 11:14:47;;;;;;;7.05;5.88;;;12.50;99.90;;;;;;5061106;28;20039;-33
2023/02/17 11:17:15;;;;;;;8.02;6.60;;;12.50;99.90;;;;;;5062281;28;20554;-34
2023/02/17 11:19:40;;;;;;;7.95;6.13;;;12.50;99.90;;;;;;5062636;28;20555;-33
2023/02/17 11:22:45;;;;;;;8.23;6.28;;;12.50;99.90;;;;;;5062913;28;20024;-34
2023/02/17 11:25:26;;;;;;;7.30;6.07;;;12.50;99.90;;;;;;5059899;28;20115;-35
2023/02/17 11:27:56;;;;;;;8.70;6.57;;;12.50;99.90;;;;;;5062822;28;20032;-34
2023/02/17 11:30:23;;;;;;;8.25;6.47;;;12.50;99.90;;;;;;5063118;28;20119;-34
2023/02/17 11:32:49;;;;;;;8.93;6.13;;;12.50;99.90;;;;;;5062662;28;20023;-35
2023/02/17 11:35:29;;;;;;;7.63;6.00;;;12.60;99.90;;;;;;5063076;28;20021;-34
2023/02/17 11:38:09;;;;;;;8.18;6.63;;;12.60;99.90;;;;;;5062421;28;20031;-34
2023/02/17 11:40:35;;;;;;;8.40;6.68;;;12.60;99.90;;;;;;5060335;28;20418;-34
2023/02/17 11:43:02;;;;;;;8.73;7.30;;;12.60;99.90;;;;;;5063248;28;20028;-33
2023/02/17 11:46:02;;;;;;;9.32;7.50;;;12.50;99.90;;;;;;5061905;28;20025;-34
2023/02/17 11:48:49;;;;;;;7.78;6.95;;;12.50;99.90;;;;;;5062570;28;20562;-34
2023/02/17 11:51:24;;;;;;;7.63;6.80;;;12.50;99.90;;;;;;5063271;28;20064;-34
2023/02/17 11:54:08;;;;;;;9.75;6.90;;;12.50;99.90;;;;;;5061955;28;20024;-33
2023/02/17 11:56:37;;;;;;;12.18;7.25;;;12.50;99.90;;;;;;5052873;28;20033;-34
2023/02/17 11:59:28;;;;;;;8.13;6.53;;;12.50;99.90;;;;;;5061786;28;20836;-33
2023/02/17 12:01:59;;;;;;;9.10;6.35;;;12.50;99.90;;;;;;5052210;28;20095;-34
2023/02/17 12:04:28;;;;;;;7.50;6.25;;;12.50;99.90;;;;;;5061818;28;20767;-33
2023/02/17 12:07:24;;;;;;;8.45;6.20;;;12.50;99.90;;;;;;5061609;28;20024;-33
2023/02/17 12:10:12;;;;;;;8.07;6.28;;;12.40;99.90;;;;;;5061544;28;20101;-33
2023/02/17 12:12:58;;;;;;;7.57;6.32;;;12.50;99.90;;;;;;5062364;28;20086;-34
2023/02/17 12:15:46;;;;;;;7.10;5.82;;;12.50;99.90;;;;;;5062426;28;20025;-33
2023/02/17 12:18:57;;;;;;;8.48;6.35;;;12.50;99.90;;;;;;5062284;28;20025;-33
2023/02/17 12:21:31;;;;;;;8.45;6.85;;;12.50;99.90;;;;;;5037724;28;20068;-34
2023/02/17 12:24:12;;;;;;;8.68;6.30;;;12.50;99.90;;;;;;5062120;28;20038;-33
2023/02/17 12:26:53;;;;;;;8.73;6.90;;;12.50;99.90;;;;;;5062554;28;20032;-33
2023/02/17 12:29:42;;;;;;;8.10;6.68;;;12.50;99.90;;;;;;5062053;28;20028;-34
2023/02/17 12:32:30;;;;;;;8.52;6.85;;;12.50;99.90;;;;;;5062233;28;20044;-32
2023/02/17 12:35:00;;;;;;;8.57;6.95;;;12.50;99.90;;;;;;5061462;28;20028;-33
2023/02/17 12:37:44;;;;;;;8.98;7.38;;;12.50;99.90;;;;;;5058959;28;20021;-34
2023/02/17 12:40:37;;;;;;;10.30;7.70;;;12.50;99.90;;;;;;5062325;28;20020;-33
2023/02/17 12:43:28;;;;;;;10.38;7.72;;;12.50;99.90;;;;;;5050030;28;20498;-33
2023/02/17 12:45:57;;;;;;;11.18;8.50;;;12.40;99.90;;;;;;5061564;28;20029;-34
2023/02/17 12:48:35;;;;;;;9.35;7.60;;;12.40;99.90;;;;;;5060616;28;20029;-33
2023/02/17 12:51:16;;;;;;;9.00;7.32;;;12.40;99.90;;;;;;5062001;28;20028;-33
2023/02/17 12:53:45;;;;;;;9.68;7.20;;;12.40;99.90;;;;;;5061653;28;20035;-33
2023/02/17 12:56:30;;;;;;;14.50;8.18;;;12.40;99.90;;;;;;5060758;28;20029;-33
2023/02/17 12:59:14;;;;;;;11.27;7.90;;;12.40;99.90;;;;;;5059694;28;20044;-33